Time;durP1;ratioP1;P1;durP2;ratioP2;P2;SDS_P1;SDS_P2;PMS_P1;PMS_P2;Temp;Humidity;BMP_temperature;BMP_pressure;BME280_temperature;BME280_humidity;BME280_pressure;Samples;Min_cycle;Max_cycle;Signal;HPM_P1;HPM_P2
2024/03/13 00:00:22;;;;;;;;;;;;;;;19.96;62.09;100223.25;7387464;19;1854;-38
2024/03/13 00:02:50;;;;;;;;;;;;;;;19.98;61.67;100237.34;7388124;19;1183;-38
2024/03/13 00:05:19;;;;;;;;;;;;;;;20.00;61.92;100214.72;7387432;19;1557;-38
2024/03/13 00:07:50;;;;;;;;;;;;;;;19.98;61.92;100224.78;7387609;19;1544;-38
2024/03/13 00:10:18;;;;;;;;;;;;;;;20.01;61.84;100226.28;7387828;19;1266;-38
2024/03/13 00:12:47;;;;;;;;;;;;;;;19.96;61.91;100232.13;7387981;19;1239;-37
2024/03/13 00:15:15;;;;;;;;;;;;;;;19.99;61.85;100220.25;7387081;19;1649;-38
2024/03/13 00:17:45;;;;;;;;;;;;;;;19.94;61.93;100226.09;7387871;19;1618;-38
2024/03/13 00:20:14;;;;;;;;;;;;;;;19.65;62.65;100215.56;7388532;19;1889;-39
2024/03/13 00:22:44;;;;;;;;;;;;;;;19.52;63.07;100217.75;7388410;19;1058;-38
2024/03/13 00:25:15;;;;;;;;;;;;;;;19.43;63.05;100217.69;7386012;19;1515;-38
2024/03/13 00:27:46;;;;;;;;;;;;;;;19.34;63.22;100212.38;7387840;19;1625;-37
2024/03/13 00:30:15;;;;;;;;;;;;;;;19.31;63.13;100224.25;7386360;19;1649;-38
2024/03/13 00:32:44;;;;;;;;;;;;;;;19.20;63.49;100211.91;7387537;19;1552;-38
2024/03/13 00:35:13;;;;;;;;;;;;;;;19.15;63.47;100216.03;7387801;19;1537;-37
2024/03/13 00:37:41;;;;;;;;;;;;;;;19.14;63.56;100208.97;7386469;19;1275;-38
2024/03/13 00:40:13;;;;;;;;;;;;;;;19.04;63.79;100206.38;7386259;19;1868;-37
2024/03/13 00:42:45;;;;;;;;;;;;;;;19.15;63.98;100208.00;7386491;19;1598;-38
2024/03/13 00:45:13;;;;;;;;;;;;;;;19.38;63.41;100220.00;7386578;19;1647;-38
2024/03/13 00:47:43;;;;;;;;;;;;;;;19.45;63.19;100220.22;7387042;19;1460;-37
2024/03/13 00:50:15;;;;;;;;;;;;;;;19.28;63.44;100224.56;7386156;19;1386;-38
2024/03/13 00:52:43;;;;;;;;;;;;;;;19.25;63.47;100211.47;7386958;19;1856;-38
2024/03/13 00:55:12;;;;;;;;;;;;;;;19.24;63.60;100215.16;7386307;19;1488;-38
2024/03/13 00:57:43;;;;;;;;;;;;;;;19.19;63.59;100215.59;7386867;19;1497;-38
2024/03/13 01:00:18;;;;;;;;;;;;;;;19.15;63.61;100208.00;7384751;19;1867;-37
2024/03/13 01:02:47;;;;;;;;;;;;;;;19.08;63.65;100215.81;7386113;19;1409;-37
2024/03/13 01:05:16;;;;;;;;;;;;;;;19.00;64.02;100215.69;7387218;19;1144;-37
2024/03/13 01:07:46;;;;;;;;;;;;;;;19.16;63.83;100212.34;7386336;19;1517;-37
2024/03/13 01:10:14;;;;;;;;;;;;;;;19.42;63.41;100201.78;7386727;19;1223;-37
2024/03/13 01:12:43;;;;;;;;;;;;;;;19.35;63.45;100198.84;7386750;19;1582;-38
2024/03/13 01:15:15;;;;;;;;;;;;;;;19.29;63.49;100194.06;7386126;19;1894;-37
2024/03/13 01:17:43;;;;;;;;;;;;;;;19.18;63.59;100186.25;7386476;19;1456;-38
2024/03/13 01:20:17;;;;;;;;;;;;;;;19.16;63.57;100194.47;7386019;19;1851;-37
2024/03/13 01:22:47;;;;;;;;;;;;;;;19.08;63.63;100205.91;7386509;19;1096;-37
2024/03/13 01:25:16;;;;;;;;;;;;;;;18.99;63.97;100177.34;7385803;19;1536;-37
2024/03/13 01:27:46;;;;;;;;;;;;;;;18.98;63.90;100194.41;7385546;19;1498;-38
2024/03/13 01:30:17;;;;;;;;;;;;;;;19.32;63.26;100201.84;7387622;19;1571;-38
2024/03/13 01:32:47;;;;;;;;;;;;;;;19.52;62.77;100180.22;7392724;19;1500;-38
2024/03/13 01:35:16;;;;;;;;;;;;;;;19.54;62.91;100200.53;7392824;19;1563;-38
2024/03/13 01:37:58;;;;;;;;;;;;;;;19.46;63.09;100195.94;7393802;19;930;-38
2024/03/13 01:54:50;;;;;;;;;;;;;;;19.32;63.67;100184.88;7393343;19;1863;-38
2024/03/13 01:57:13;;;;;;;;;;;;;;;19.50;63.12;100179.53;7394599;19;1400;-39
2024/03/13 01:59:49;;;;;;;;;;;;;;;19.49;63.49;100162.59;7394265;19;1681;-42
2024/03/13 02:02:24;;;;;;;;;;;;;;;19.89;62.44;100157.78;7392661;19;1875;-38
2024/03/13 02:04:56;;;;;;;;;;;;;;;20.08;61.70;100162.94;7393856;19;1121;-38
2024/03/13 02:07:26;;;;;;;;;;;;;;;20.12;61.67;100174.22;7394221;19;1080;-38
2024/03/13 02:09:55;;;;;;;;;;;;;;;20.16;61.68;100163.00;7393907;19;1829;-38
2024/03/13 02:12:24;;;;;;;;;;;;;;;20.18;61.83;100144.91;7392238;19;1424;-38
2024/03/13 02:14:52;;;;;;;;;;;;;;;20.31;61.69;100163.25;7389115;19;1338;-38
2024/03/13 02:17:21;;;;;;;;;;;;;;;20.01;62.58;100156.53;7388854;19;1374;-38
2024/03/13 02:19:50;;;;;;;;;;;;;;;19.84;62.84;100159.09;7384969;19;2050;-38
2024/03/13 02:22:21;;;;;;;;;;;;;;;19.79;62.82;100173.97;7385561;19;1838;-38
2024/03/13 02:24:53;;;;;;;;;;;;;;;19.77;63.00;100173.28;7380035;19;1405;-37
2024/03/13 02:27:22;;;;;;;;;;;;;;;19.65;62.96;100132.41;7381966;19;1494;-38
2024/03/13 02:29:51;;;;;;;;;;;;;;;19.75;63.02;100176.09;7381001;19;1331;-38
2024/03/13 02:32:20;;;;;;;;;;;;;;;19.75;63.08;100168.06;7383708;19;1614;-37
2024/03/13 02:34:49;;;;;;;;;;;;;;;19.78;62.90;100181.19;7388848;19;1512;-37
2024/03/13 02:37:18;;;;;;;;;;;;;;;19.88;62.73;100156.94;7390941;19;1570;-38
2024/03/13 02:39:46;;;;;;;;;;;;;;;19.86;62.65;100150.88;7390418;19;1543;-37
2024/03/13 02:42:17;;;;;;;;;;;;;;;19.77;62.98;100165.22;7389216;19;1872;-38
2024/03/13 02:44:46;;;;;;;;;;;;;;;19.76;62.89;100169.75;7390379;19;1106;-37
2024/03/13 02:47:17;;;;;;;;;;;;;;;19.76;62.90;100163.56;7385568;19;2125;-37
2024/03/13 02:49:46;;;;;;;;;;;;;;;19.82;62.88;100173.66;7390513;19;1214;-37
2024/03/13 02:52:15;;;;;;;;;;;;;;;19.81;62.80;100156.69;7389991;19;1615;-38
2024/03/13 02:54:43;;;;;;;;;;;;;;;19.80;62.95;100159.56;7390155;19;1488;-37
2024/03/13 02:57:14;;;;;;;;;;;;;;;19.88;62.45;100161.47;7390394;19;1493;-38
2024/03/13 02:59:46;;;;;;;;;;;;;;;19.90;62.49;100154.09;7390224;19;1403;-37
2024/03/13 03:02:14;;;;;;;;;;;;;;;19.86;62.54;100164.31;7388025;19;1883;-37
2024/03/13 03:04:43;;;;;;;;;;;;;;;19.86;62.54;100161.63;7390774;19;1084;-37
2024/03/13 03:07:12;;;;;;;;;;;;;;;19.91;62.52;100161.16;7389106;19;1397;-37
2024/03/13 03:09:41;;;;;;;;;;;;;;;19.93;62.38;100159.16;7388989;19;1558;-38
2024/03/13 03:12:12;;;;;;;;;;;;;;;19.90;62.40;100148.75;7388725;19;1595;-38
2024/03/13 03:14:41;;;;;;;;;;;;;;;19.92;62.25;100142.22;7388384;19;1499;-38
2024/03/13 03:17:14;;;;;;;;;;;;;;;19.91;62.35;100155.78;7387927;19;1285;-38
2024/03/13 03:19:43;;;;;;;;;;;;;;;19.91;62.43;100151.25;7388773;19;1246;-37
2024/03/13 03:22:12;;;;;;;;;;;;;;;19.96;62.23;100143.56;7387417;19;1852;-38
2024/03/13 03:24:40;;;;;;;;;;;;;;;19.91;62.54;100153.09;7388787;19;1517;-38
2024/03/13 03:27:09;;;;;;;;;;;;;;;19.92;62.30;100141.38;7389234;19;1574;-38
2024/03/13 03:29:37;;;;;;;;;;;;;;;19.85;62.44;100147.34;7389907;19;1541;-38
2024/03/13 03:32:06;;;;;;;;;;;;;;;19.88;62.46;100148.06;7389370;19;1590;-37
2024/03/13 03:34:39;;;;;;;;;;;;;;;19.92;62.50;100152.09;7388506;19;1390;-37
2024/03/13 03:37:08;;;;;;;;;;;;;;;19.98;62.16;100146.94;7389411;19;1498;-38
2024/03/13 03:39:38;;;;;;;;;;;;;;;20.04;62.14;100150.84;7389660;19;1018;-39
2024/03/13 03:42:06;;;;;;;;;;;;;;;20.10;61.90;100146.69;7387988;19;1852;-37
2024/03/13 03:44:35;;;;;;;;;;;;;;;20.22;61.28;100148.13;7386798;19;1429;-38
2024/03/13 03:47:03;;;;;;;;;;;;;;;20.16;61.58;100144.22;7386000;19;1227;-37
2024/03/13 03:49:32;;;;;;;;;;;;;;;20.10;61.74;100146.69;7387558;19;1392;-38
2024/03/13 03:52:03;;;;;;;;;;;;;;;20.06;62.08;100149.69;7385533;19;1820;-38
2024/03/13 03:54:32;;;;;;;;;;;;;;;20.02;62.28;100150.16;7387395;19;1820;-37
2024/03/13 03:57:00;;;;;;;;;;;;;;;19.98;62.46;100151.47;7387992;19;1514;-38
2024/03/13 03:59:28;;;;;;;;;;;;;;;20.00;62.45;100152.16;7388731;19;1093;-37
2024/03/13 04:01:57;;;;;;;;;;;;;;;19.77;63.05;100147.28;7385535;19;1854;-37
2024/03/13 04:04:26;;;;;;;;;;;;;;;19.58;63.52;100140.25;7387697;19;1582;-38
2024/03/13 04:06:55;;;;;;;;;;;;;;;19.48;63.80;100155.56;7387266;19;1188;-37
2024/03/13 04:09:26;;;;;;;;;;;;;;;19.45;63.64;100145.97;7387854;19;1389;-37
2024/03/13 04:11:55;;;;;;;;;;;;;;;19.41;63.85;100147.28;7387903;19;1191;-38
2024/03/13 04:14:23;;;;;;;;;;;;;;;19.38;63.61;100144.09;7386576;19;1431;-37
2024/03/13 04:16:52;;;;;;;;;;;;;;;19.36;63.65;100140.69;7388406;19;1121;-38
2024/03/13 04:19:21;;;;;;;;;;;;;;;19.33;63.68;100138.31;7385688;19;2462;-38
2024/03/13 04:21:50;;;;;;;;;;;;;;;19.27;63.69;100143.28;7387287;19;1844;-38
2024/03/13 04:24:19;;;;;;;;;;;;;;;19.23;63.81;100152.63;7387839;19;1510;-38
2024/03/13 04:26:50;;;;;;;;;;;;;;;19.27;63.78;100148.66;7388356;19;1587;-37
2024/03/13 04:29:20;;;;;;;;;;;;;;;19.24;63.72;100150.81;7387053;19;1583;-38
2024/03/13 04:31:49;;;;;;;;;;;;;;;19.20;64.01;100158.31;7386440;19;1244;-38
2024/03/13 04:34:17;;;;;;;;;;;;;;;19.03;63.63;100159.97;7384108;19;1184;-38
2024/03/13 04:36:47;;;;;;;;;;;;;;;18.94;63.93;100152.84;7387235;19;1148;-37
2024/03/13 04:39:16;;;;;;;;;;;;;;;19.24;63.77;100150.81;7386008;19;1542;-37
2024/03/13 04:41:44;;;;;;;;;;;;;;;19.30;63.89;100155.56;7385596;19;1842;-38
2024/03/13 04:44:16;;;;;;;;;;;;;;;19.32;63.44;100158.94;7382175;19;1412;-37
2024/03/13 04:46:44;;;;;;;;;;;;;;;19.41;63.29;100160.69;7382118;19;1405;-38
2024/03/13 04:49:13;;;;;;;;;;;;;;;19.58;62.74;100163.53;7384801;19;1463;-38
2024/03/13 04:51:41;;;;;;;;;;;;;;;19.61;62.68;100171.25;7383054;19;1548;-38
2024/03/13 04:54:11;;;;;;;;;;;;;;;19.61;62.79;100168.56;7383971;19;1168;-37
2024/03/13 04:56:40;;;;;;;;;;;;;;;19.62;62.71;100170.28;7383300;19;1817;-37
2024/03/13 04:59:08;;;;;;;;;;;;;;;19.58;62.82;100174.28;7384395;19;1482;-38
2024/03/13 05:01:39;;;;;;;;;;;;;;;19.64;62.70;100176.34;7384819;19;1856;-37
2024/03/13 05:04:08;;;;;;;;;;;;;;;19.63;62.75;100169.28;7387525;19;1496;-38
2024/03/13 05:06:36;;;;;;;;;;;;;;;19.67;62.57;100154.56;7393214;19;1556;-38
2024/03/13 05:09:05;;;;;;;;;;;;;;;19.64;62.68;100152.19;7389785;19;1227;-37
2024/03/13 05:11:33;;;;;;;;;;;;;;;19.71;62.41;100169.38;7393474;19;1671;-37
2024/03/13 05:14:02;;;;;;;;;;;;;;;19.74;62.35;100166.38;7390240;19;1621;-37
2024/03/13 05:16:30;;;;;;;;;;;;;;;19.73;62.43;100170.06;7389675;19;1940;-38
2024/03/13 05:19:01;;;;;;;;;;;;;;;19.71;62.26;100150.59;7390137;19;1645;-38
2024/03/13 05:21:30;;;;;;;;;;;;;;;19.77;62.19;100159.88;7389340;19;1869;-38
2024/03/13 05:23:58;;;;;;;;;;;;;;;19.74;62.31;100165.56;7389108;19;1580;-37
2024/03/13 05:26:27;;;;;;;;;;;;;;;19.74;62.14;100174.44;7389568;19;1556;-39
2024/03/13 05:28:55;;;;;;;;;;;;;;;19.76;62.35;100180.50;7394155;19;1101;-37
2024/03/13 05:31:24;;;;;;;;;;;;;;;19.69;62.48;100168.66;7393017;19;2105;-38
2024/03/13 05:33:52;;;;;;;;;;;;;;;19.70;62.46;100167.66;7393127;19;1595;-37
2024/03/13 05:36:23;;;;;;;;;;;;;;;19.74;62.37;100177.13;7392580;19;1585;-37
2024/03/13 05:38:53;;;;;;;;;;;;;;;19.71;62.32;100177.41;7393269;19;1530;-37
2024/03/13 05:41:22;;;;;;;;;;;;;;;19.72;62.30;100194.38;7393314;19;1658;-37
2024/03/13 05:43:50;;;;;;;;;;;;;;;19.76;62.09;100190.38;7391114;19;1847;-37
2024/03/13 05:46:21;;;;;;;;;;;;;;;19.79;62.27;100182.84;7393153;19;1593;-38
2024/03/13 05:48:50;;;;;;;;;;;;;;;19.76;61.94;100164.41;7392614;19;1177;-37
2024/03/13 05:51:18;;;;;;;;;;;;;;;19.80;62.05;100189.06;7392555;19;1552;-38
2024/03/13 05:53:49;;;;;;;;;;;;;;;19.79;62.05;100190.91;7393934;19;1068;-38
2024/03/13 05:56:18;;;;;;;;;;;;;;;19.71;61.92;100172.06;7392406;19;1516;-38
2024/03/13 05:58:46;;;;;;;;;;;;;;;19.71;62.26;100193.50;7392768;19;1414;-38
2024/03/13 06:01:15;;;;;;;;;;;;;;;19.86;61.42;100183.91;7392942;19;1554;-37
2024/03/13 06:03:43;;;;;;;;;;;;;;;20.00;60.67;100189.75;7390847;19;1852;-38
2024/03/13 06:06:12;;;;;;;;;;;;;;;20.26;60.40;100182.53;7380163;19;1472;-38
2024/03/13 06:08:40;;;;;;;;;;;;;;;20.42;59.75;100180.97;7384197;19;1553;-38
2024/03/13 06:11:12;;;;;;;;;;;;;;;20.17;60.46;100204.09;7389669;19;1448;-38
2024/03/13 06:13:40;;;;;;;;;;;;;;;19.82;61.71;100201.34;7389411;19;1061;-38
2024/03/13 06:16:09;;;;;;;;;;;;;;;19.57;61.97;100202.06;7386449;19;1920;-38
2024/03/13 06:18:38;;;;;;;;;;;;;;;19.40;61.76;100217.16;7389343;19;1297;-37
2024/03/13 06:21:07;;;;;;;;;;;;;;;19.29;62.79;100212.84;7390898;19;1449;-37
2024/03/13 06:23:36;;;;;;;;;;;;;;;19.06;60.64;100207.91;7387432;19;1845;-37
2024/03/13 06:26:07;;;;;;;;;;;;;;;18.82;58.83;100212.94;7367378;19;1186;-38
2024/03/13 06:31:19;;;;;;;;;;;;;;;18.66;60.14;100217.09;7387929;19;1528;-38
2024/03/13 06:33:47;;;;;;;;;;;;;;;18.73;60.03;100217.34;7390111;19;1461;-38
2024/03/13 06:36:16;;;;;;;;;;;;;;;19.16;59.57;100215.91;7391412;19;1546;-38
2024/03/13 06:38:46;;;;;;;;;;;;;;;19.54;59.08;100213.13;7391165;19;1563;-38
2024/03/13 06:41:14;;;;;;;;;;;;;;;19.86;58.45;100228.69;7389927;19;1200;-38
2024/03/13 06:43:45;;;;;;;;;;;;;;;19.61;58.98;100208.81;7372130;19;1939;-38
2024/03/13 06:46:14;;;;;;;;;;;;;;;19.41;59.53;100219.69;7380374;19;1554;-38
2024/03/13 06:48:42;;;;;;;;;;;;;;;19.24;60.15;100225.88;7387896;19;1528;-38
2024/03/13 06:51:12;;;;;;;;;;;;;;;19.02;58.06;100202.97;7386625;19;1501;-38
2024/03/13 06:53:40;;;;;;;;;;;;;;;19.00;56.93;100227.25;7388231;19;1243;-39
2024/03/13 06:56:09;;;;;;;;;;;;;;;18.89;57.86;100214.06;7388285;19;1521;-38
2024/03/13 06:58:38;;;;;;;;;;;;;;;18.83;59.23;100215.47;7381748;19;1569;-38
2024/03/13 07:01:15;;;;;;;;;;;;;;;19.26;58.01;100216.69;7388438;19;1669;-41
2024/03/13 07:03:44;;;;;;;;;;;;;;;19.32;57.73;100231.31;7386712;19;1860;-39
2024/03/13 07:06:14;;;;;;;;;;;;;;;19.35;57.72;100231.00;7387825;19;1712;-38
2024/03/13 07:08:43;;;;;;;;;;;;;;;19.55;56.87;100230.88;7388194;19;1432;-39
2024/03/13 07:11:13;;;;;;;;;;;;;;;19.61;56.38;100235.63;7389326;19;1435;-39
2024/03/13 07:13:41;;;;;;;;;;;;;;;19.65;56.09;100250.44;7388269;19;1548;-39
2024/03/13 07:16:10;;;;;;;;;;;;;;;19.63;55.92;100258.63;7386350;19;1760;-39
2024/03/13 07:18:41;;;;;;;;;;;;;;;19.73;56.14;100245.16;7389575;19;1604;-39
2024/03/13 07:21:10;;;;;;;;;;;;;;;19.81;55.97;100272.06;7389924;19;1492;-39
2024/03/13 07:23:38;;;;;;;;;;;;;;;19.56;56.20;100270.13;7388597;19;1880;-38
2024/03/13 07:26:08;;;;;;;;;;;;;;;19.43;56.02;100265.13;7390281;19;1341;-38
2024/03/13 07:28:38;;;;;;;;;;;;;;;19.44;56.25;100261.44;7383415;19;1821;-38
2024/03/13 07:31:07;;;;;;;;;;;;;;;19.38;56.41;100262.91;7389779;19;1566;-38
2024/03/13 07:33:37;;;;;;;;;;;;;;;19.43;56.64;100268.63;7389222;19;1561;-39
2024/03/13 07:36:09;;;;;;;;;;;;;;;19.43;56.53;100260.59;7390428;19;1649;-39
2024/03/13 07:38:39;;;;;;;;;;;;;;;19.46;56.87;100271.03;7388671;19;1263;-38
2024/03/13 07:41:12;;;;;;;;;;;;;;;19.50;56.76;100260.84;7389866;19;1475;-39
2024/03/13 07:43:41;;;;;;;;;;;;;;;19.44;56.98;100256.09;7387926;19;1840;-39
2024/03/13 07:46:10;;;;;;;;;;;;;;;19.46;56.85;100272.88;7388659;19;1460;-39
2024/03/13 07:48:39;;;;;;;;;;;;;;;19.43;57.09;100255.22;7389261;19;1491;-39
2024/03/13 07:51:11;;;;;;;;;;;;;;;19.46;57.27;100260.31;7389482;19;1227;-39
2024/03/13 07:53:39;;;;;;;;;;;;;;;19.50;56.95;100278.75;7389311;19;1015;-38
2024/03/13 07:56:08;;;;;;;;;;;;;;;19.50;57.18;100273.38;7388928;19;1549;-39
2024/03/13 07:58:37;;;;;;;;;;;;;;;19.51;57.22;100280.44;7388693;19;1493;-39
2024/03/13 08:01:06;;;;;;;;;;;;;;;19.51;57.31;100283.13;7389346;19;1508;-39
2024/03/13 08:03:35;;;;;;;;;;;;;;;19.50;57.33;100271.56;7387999;19;1847;-39
2024/03/13 08:06:03;;;;;;;;;;;;;;;19.50;57.59;100274.25;7388157;19;1733;-38
2024/03/13 08:08:35;;;;;;;;;;;;;;;19.48;57.76;100269.03;7388795;19;1618;-39
2024/03/13 08:11:04;;;;;;;;;;;;;;;19.48;57.66;100269.03;7389538;19;1492;-39
2024/03/13 08:13:33;;;;;;;;;;;;;;;19.47;57.77;100266.50;7388928;19;1034;-39
2024/03/13 08:16:02;;;;;;;;;;;;;;;19.52;57.79;100284.81;7388156;19;1499;-38
2024/03/13 08:18:30;;;;;;;;;;;;;;;19.53;57.76;100259.69;7388193;19;1547;-39
2024/03/13 08:20:59;;;;;;;;;;;;;;;19.51;57.80;100272.41;7388238;19;1504;-39
2024/03/13 08:23:28;;;;;;;;;;;;;;;19.50;57.97;100276.06;7388491;19;1850;-38
2024/03/13 08:26:01;;;;;;;;;;;;;;;19.51;57.99;100272.41;7387795;19;2028;-39
2024/03/13 08:28:30;;;;;;;;;;;;;;;19.55;57.78;100273.78;7388077;19;1537;-39
2024/03/13 08:30:59;;;;;;;;;;;;;;;19.57;57.85;100279.84;7390015;19;1546;-39
2024/03/13 08:33:28;;;;;;;;;;;;;;;19.57;57.85;100277.16;7388702;19;1593;-39
2024/03/13 08:35:56;;;;;;;;;;;;;;;19.57;57.77;100287.91;7389119;19;1493;-39
2024/03/13 08:38:25;;;;;;;;;;;;;;;19.58;58.04;100277.03;7391963;19;1545;-39
2024/03/13 08:40:53;;;;;;;;;;;;;;;19.55;58.00;100289.88;7403178;19;1378;-38
2024/03/13 08:43:24;;;;;;;;;;;;;;;19.53;58.08;100283.81;7402628;19;1858;-39
2024/03/13 08:45:53;;;;;;;;;;;;;;;19.55;58.00;100290.72;7404420;19;1207;-39
2024/03/13 08:48:25;;;;;;;;;;;;;;;19.58;58.24;100294.97;7404144;19;1537;-39
2024/03/13 08:50:57;;;;;;;;;;;;;;;19.57;58.16;100294.09;7402067;19;1548;-38
2024/03/13 08:53:25;;;;;;;;;;;;;;;19.59;58.31;100285.91;7402678;19;1034;-39
2024/03/13 08:55:54;;;;;;;;;;;;;;;19.55;58.12;100288.03;7401033;19;1488;-38
2024/03/13 08:58:25;;;;;;;;;;;;;;;19.58;58.23;100293.13;7400033;19;1606;-39
2024/03/13 09:00:55;;;;;;;;;;;;;;;19.62;58.28;100299.03;7400335;19;1216;-39
2024/03/13 09:03:23;;;;;;;;;;;;;;;19.57;58.32;100283.38;7400307;19;1882;-42
2024/03/13 09:05:52;;;;;;;;;;;;;;;19.60;58.23;100287.59;7401875;19;1499;-39
2024/03/13 09:08:22;;;;;;;;;;;;;;;19.60;58.31;100287.59;7401219;19;1688;-39
2024/03/13 09:10:50;;;;;;;;;;;;;;;19.61;58.39;100283.91;7402057;19;1052;-38
2024/03/13 09:13:19;;;;;;;;;;;;;;;19.54;58.29;100283.69;7401871;19;992;-39
2024/03/13 09:15:50;;;;;;;;;;;;;;;19.56;58.50;100283.53;7398210;19;2472;-38
2024/03/13 09:18:18;;;;;;;;;;;;;;;19.63;58.28;100296.16;7400706;19;1571;-39
2024/03/13 09:20:47;;;;;;;;;;;;;;;19.62;58.45;100285.63;7400600;19;1491;-39
2024/03/13 09:23:15;;;;;;;;;;;;;;;19.62;58.36;100280.25;7401164;19;1867;-39
2024/03/13 09:25:44;;;;;;;;;;;;;;;19.63;58.22;100287.28;7400668;19;1545;-38
2024/03/13 09:28:12;;;;;;;;;;;;;;;19.67;58.46;100285.97;7399431;19;1426;-39
2024/03/13 09:30:41;;;;;;;;;;;;;;;19.69;58.30;100286.69;7400542;19;1550;-38
2024/03/13 09:33:12;;;;;;;;;;;;;;;19.70;58.38;100276.81;7400163;19;1496;-39
2024/03/13 09:35:42;;;;;;;;;;;;;;;19.68;58.16;100282.31;7400960;19;1598;-39
2024/03/13 09:38:12;;;;;;;;;;;;;;;19.69;58.18;100284.00;7400000;19;1578;-38
2024/03/13 09:40:42;;;;;;;;;;;;;;;19.74;58.35;100267.50;7400828;19;1489;-38
2024/03/13 09:43:10;;;;;;;;;;;;;;;19.73;58.22;100282.72;7401369;19;1863;-39
2024/03/13 09:45:40;;;;;;;;;;;;;;;19.74;58.26;100287.13;7401392;19;942;-39
2024/03/13 09:48:10;;;;;;;;;;;;;;;19.72;58.21;100277.53;7400369;19;1503;-38
2024/03/13 09:50:42;;;;;;;;;;;;;;;19.77;58.13;100288.63;7394211;19;1570;-38
2024/03/13 09:53:12;;;;;;;;;;;;;;;19.80;58.07;100273.09;7391585;19;2148;-39
2024/03/13 09:55:41;;;;;;;;;;;;;;;19.84;57.99;100270.94;7394098;19;1302;-39
2024/03/13 09:58:12;;;;;;;;;;;;;;;19.82;58.22;100262.22;7392833;19;1551;-38
2024/03/13 10:00:40;;;;;;;;;;;;;;;19.86;58.00;100277.00;7391720;19;1561;-39
2024/03/13 10:03:16;;;;;;;;;;;;;;;19.81;58.06;100264.03;7392173;19;1875;-39
2024/03/13 10:05:48;;;;;;;;;;;;;;;19.83;58.03;100270.06;7393259;19;1551;-39
2024/03/13 10:08:17;;;;;;;;;;;;;;;19.80;58.19;100259.66;7393310;19;1639;-39
2024/03/13 10:10:46;;;;;;;;;;;;;;;19.82;58.19;100264.88;7392238;19;1827;-38
2024/03/13 10:13:15;;;;;;;;;;;;;;;19.79;58.34;100262.50;7393701;19;1101;-39
2024/03/13 10:15:45;;;;;;;;;;;;;;;19.81;58.33;100266.72;7391868;19;1553;-38
2024/03/13 10:18:16;;;;;;;;;;;;;;;19.78;58.35;100261.66;7392014;19;1497;-39
2024/03/13 10:20:54;;;;;;;;;;;;;;;19.81;58.38;100258.66;7392090;19;1401;-39
2024/03/13 10:23:24;;;;;;;;;;;;;;;19.83;58.32;100262.03;7392021;19;1869;-38
2024/03/13 10:25:53;;;;;;;;;;;;;;;19.85;58.37;100260.03;7390391;19;1420;-39
2024/03/13 10:28:23;;;;;;;;;;;;;;;19.79;58.51;100249.91;7391444;19;1773;-39
2024/03/13 10:30:52;;;;;;;;;;;;;;;19.81;58.45;100242.56;7392042;19;1475;-42
2024/03/13 10:33:22;;;;;;;;;;;;;;;19.82;58.34;100246.09;7391334;19;1564;-38
2024/03/13 10:35:54;;;;;;;;;;;;;;;19.80;58.22;100235.53;7391712;19;1471;-38
2024/03/13 10:38:23;;;;;;;;;;;;;;;19.82;58.39;100251.47;7391396;19;1524;-38
2024/03/13 10:40:52;;;;;;;;;;;;;;;19.80;58.44;100243.56;7390909;19;1246;-38
2024/03/13 10:43:21;;;;;;;;;;;;;;;19.82;58.46;100244.25;7391548;19;1836;-38
2024/03/13 10:45:50;;;;;;;;;;;;;;;19.83;58.39;100235.19;7391684;19;1822;-39
2024/03/13 10:48:20;;;;;;;;;;;;;;;19.74;58.58;100235.31;7390097;19;2503;-38
2024/03/13 10:50:49;;;;;;;;;;;;;;;19.47;59.31;100228.97;7391370;19;1472;-39
2024/03/13 10:53:21;;;;;;;;;;;;;;;19.32;59.75;100228.66;7391952;19;1101;-40
2024/03/13 10:55:50;;;;;;;;;;;;;;;19.24;59.92;100228.56;7391450;19;1499;-39
2024/03/13 10:58:21;;;;;;;;;;;;;;;19.10;60.30;100221.84;7391351;19;1611;-39
2024/03/13 11:00:50;;;;;;;;;;;;;;;19.03;60.11;100220.75;7390084;19;1610;-38
2024/03/13 11:03:19;;;;;;;;;;;;;;;19.13;60.25;100216.19;7389978;19;1152;-39
2024/03/13 11:05:50;;;;;;;;;;;;;;;19.02;60.13;100219.06;7390678;19;1645;-38
2024/03/13 11:08:21;;;;;;;;;;;;;;;19.21;59.98;100218.13;7390707;19;1474;-39
2024/03/13 11:10:50;;;;;;;;;;;;;;;19.47;59.03;100223.59;7390171;19;1473;-40
2024/03/13 11:13:19;;;;;;;;;;;;;;;19.38;59.56;100229.88;7389973;19;1941;-39
2024/03/13 11:15:49;;;;;;;;;;;;;;;19.44;59.68;100224.75;7390692;19;1495;-40
2024/03/13 11:18:18;;;;;;;;;;;;;;;19.26;59.85;100224.72;7391048;19;1089;-39
2024/03/13 11:20:50;;;;;;;;;;;;;;;19.21;60.04;100210.06;7391187;19;1012;-39
2024/03/13 11:23:23;;;;;;;;;;;;;;;19.16;59.93;100220.38;7389839;19;1832;-38
2024/03/13 11:25:52;;;;;;;;;;;;;;;19.06;60.29;100202.56;7387802;19;1861;-38
2024/03/13 11:28:24;;;;;;;;;;;;;;;18.95;60.64;100207.25;7389413;19;1441;-39
2024/03/13 11:30:56;;;;;;;;;;;;;;;18.98;60.51;100204.28;7388284;19;1449;-39
2024/03/13 11:33:25;;;;;;;;;;;;;;;18.95;60.56;100197.38;7389291;19;1477;-38
2024/03/13 11:35:54;;;;;;;;;;;;;;;19.07;60.20;100212.25;7390329;19;1606;-39
2024/03/13 11:38:25;;;;;;;;;;;;;;;19.21;60.20;100210.06;7390209;19;1540;-39
2024/03/13 11:40:55;;;;;;;;;;;;;;;19.32;59.82;100198.28;7389493;19;1476;-39
2024/03/13 11:43:25;;;;;;;;;;;;;;;19.21;60.12;100196.69;7389466;19;1604;-41
2024/03/13 11:45:53;;;;;;;;;;;;;;;19.18;60.18;100207.69;7388039;19;1851;-39
2024/03/13 11:48:23;;;;;;;;;;;;;;;19.05;60.29;100198.16;7389033;19;1483;-39
2024/03/13 11:51:07;;;;;;;;;;;;;;;18.94;60.82;100195.72;7389620;19;1543;-39
2024/03/13 11:53:45;;;;;;;;;;;;;;;18.84;60.90;100189.53;7389909;19;1012;-39
2024/03/13 11:56:21;;;;;;;;;;;;;;;18.84;60.97;100194.88;7389549;19;1567;-39
2024/03/13 11:58:49;;;;;;;;;;;;;;;19.02;60.63;100192.25;7389973;19;1559;-39
2024/03/13 12:01:18;;;;;;;;;;;;;;;19.05;60.48;100195.50;7388268;19;1491;-38
2024/03/13 12:03:48;;;;;;;;;;;;;;;19.26;60.05;100213.16;7388706;19;1843;-38
2024/03/13 12:06:33;;;;;;;;;;;;;;;19.10;60.30;100202.22;7389051;19;1501;-39
2024/03/13 12:09:09;;;;;;;;;;;;;;;19.10;60.27;100178.13;7388518;19;1207;-38
2024/03/13 12:11:38;;;;;;;;;;;;;;;19.04;60.46;100201.84;7388527;19;1496;-38
2024/03/13 12:14:07;;;;;;;;;;;;;;;18.95;60.60;100189.34;7387471;19;1618;-39
2024/03/13 12:16:36;;;;;;;;;;;;;;;18.91;60.69;100187.97;7388627;19;1053;-39
2024/03/13 12:19:05;;;;;;;;;;;;;;;18.82;60.78;100176.31;7386270;19;2481;-38
2024/03/13 12:21:34;;;;;;;;;;;;;;;18.95;60.78;100188.50;7388105;19;1563;-39
2024/03/13 12:24:07;;;;;;;;;;;;;;;19.02;60.63;100186.91;7388577;19;1846;-39
2024/03/13 12:26:35;;;;;;;;;;;;;;;19.13;60.33;100196.59;7388713;19;1524;-38
2024/03/13 12:29:04;;;;;;;;;;;;;;;19.01;60.65;100183.38;7387813;19;1502;-39
2024/03/13 12:31:32;;;;;;;;;;;;;;;18.99;60.59;100177.34;7388506;19;1094;-39
2024/03/13 12:34:01;;;;;;;;;;;;;;;18.99;60.55;100190.72;7388587;19;1909;-39
2024/03/13 12:36:30;;;;;;;;;;;;;;;18.92;60.59;100200.38;7387580;19;1198;-39
2024/03/13 12:38:59;;;;;;;;;;;;;;;18.93;60.75;100204.72;7388041;19;1175;-47
2024/03/13 12:41:30;;;;;;;;;;;;;;;18.84;60.99;100189.53;7387789;19;1493;-39
2024/03/13 12:43:58;;;;;;;;;;;;;;;18.95;60.84;100197.38;7387997;19;1857;-38
2024/03/13 12:46:27;;;;;;;;;;;;;;;19.02;60.57;100198.47;7386253;19;2363;-38
2024/03/13 12:48:57;;;;;;;;;;;;;;;19.17;60.30;100197.97;7388121;19;1558;-39
2024/03/13 12:51:26;;;;;;;;;;;;;;;19.08;60.43;100197.88;7387449;19;1504;-38
2024/03/13 12:53:55;;;;;;;;;;;;;;;19.05;60.32;100191.97;7388280;19;1073;-38
2024/03/13 12:56:32;;;;;;;;;;;;;;;19.03;60.62;100202.84;7388088;19;1592;-39
2024/03/13 12:59:01;;;;;;;;;;;;;;;18.99;60.65;100206.81;7385218;19;1519;-39
2024/03/13 13:01:30;;;;;;;;;;;;;;;18.91;60.58;100192.47;7386398;19;1659;-39
2024/03/13 13:03:59;;;;;;;;;;;;;;;18.80;60.95;100194.38;7386973;19;1490;-39
2024/03/13 13:06:29;;;;;;;;;;;;;;;18.90;60.81;100210.41;7384146;19;1863;-39
2024/03/13 13:08:58;;;;;;;;;;;;;;;18.95;60.88;100196.53;7386543;19;1367;-38
2024/03/13 13:11:27;;;;;;;;;;;;;;;19.09;60.55;100204.09;7387305;19;1424;-38
2024/03/13 13:13:58;;;;;;;;;;;;;;;19.25;59.90;100198.06;7386948;19;1637;-38
2024/03/13 13:16:27;;;;;;;;;;;;;;;19.42;59.57;100204.44;7387511;19;1626;-38